Time;durP1;ratioP1;P1;durP2;ratioP2;P2;SDS_P1;SDS_P2;PMS_P1;PMS_P2;Temp;Humidity;BMP_temperature;BMP_pressure;BME280_temperature;BME280_humidity;BME280_pressure;Samples;Min_cycle;Max_cycle;Signal;HPM_P1;HPM_P2
2022/06/09 00:01:18;;;;;;;12.13;3.47;;;;;;;;;;4985534;28;20037;-76
2022/06/09 00:03:48;;;;;;;9.60;3.28;;;;;;;;;;4980465;28;20061;-76
2022/06/09 00:06:17;;;;;;;9.77;3.25;;;;;;;;;;4983368;28;20128;-76
2022/06/09 00:08:48;;;;;;;11.68;3.70;;;;;;;;;;4980588;28;20472;-76
2022/06/09 00:11:16;;;;;;;11.27;3.38;;;;;;;;;;4969793;28;20029;-76
2022/06/09 00:13:44;;;;;;;12.00;3.70;;;;;;;;;;4977141;28;20040;-76
2022/06/09 00:16:13;;;;;;;11.13;3.20;;;;;;;;;;4988650;28;20485;-74
2022/06/09 00:18:41;;;;;;;10.20;3.00;;;;;;;;;;4978520;28;20314;-76
2022/06/09 00:21:08;;;;;;;11.48;3.20;;;;;;;;;;4983385;28;20042;-75
2022/06/09 00:23:36;;;;;;;10.48;2.75;;;;;;;;;;4981798;28;20506;-76
2022/06/09 00:26:04;;;;;;;10.15;2.70;;;;;;;;;;4970164;28;20590;-76
2022/06/09 00:28:35;;;;;;;10.20;2.78;;;;;;;;;;4972491;28;20034;-76
2022/06/09 00:31:02;;;;;;;9.73;2.63;;;;;;;;;;4970392;28;20136;-75
2022/06/09 00:33:29;;;;;;;10.48;2.72;;;;;;;;;;4987440;28;20459;-75
2022/06/09 00:35:57;;;;;;;8.85;2.58;;;;;;;;;;4969195;28;20117;-76
2022/06/09 00:38:24;;;;;;;8.50;2.65;;;;;;;;;;4967096;28;20459;-77
2022/06/09 00:40:56;;;;;;;10.85;2.78;;;;;;;;;;4966793;28;20760;-76
2022/06/09 00:43:23;;;;;;;9.35;2.33;;;;;;;;;;4983478;28;20108;-76
2022/06/09 00:46:13;;;;;;;11.38;2.25;;;;;;;;;;4983040;28;20029;-76
2022/06/09 00:48:56;;;;;;;7.88;2.28;;;;;;;;;;4967440;28;20037;-76
2022/06/09 00:51:44;;;;;;;9.57;2.30;;;;;;;;;;4982109;28;20142;-75
2022/06/09 00:54:33;;;;;;;10.73;2.30;;;;;;;;;;4981587;28;20353;-76
2022/06/09 00:57:06;;;;;;;7.25;2.20;;;;;;;;;;4956300;28;20185;-76
2022/06/09 00:59:34;;;;;;;7.50;2.08;;;;;;;;;;4958473;28;20583;-76
2022/06/09 01:02:01;;;;;;;8.50;2.17;;;;;;;;;;4975166;28;20025;-76
2022/06/09 01:04:29;;;;;;;6.00;1.85;;;;;;;;;;4969812;28;20035;-76
2022/06/09 01:06:58;;;;;;;7.43;2.15;;;;;;;;;;4950681;28;20022;-74
2022/06/09 01:09:26;;;;;;;7.20;2.05;;;;;;;;;;4974824;28;20080;-73
2022/06/09 01:11:53;;;;;;;7.25;2.00;;;;;;;;;;4948001;28;20062;-73
2022/06/09 01:14:21;;;;;;;6.40;1.80;;;;;;;;;;4971848;28;20665;-74
2022/06/09 01:17:06;;;;;;;6.47;1.83;;;;;;;;;;4951317;28;20034;-73
2022/06/09 01:19:38;;;;;;;6.70;1.85;;;;;;;;;;4965815;28;20092;-74
2022/06/09 01:22:14;;;;;;;6.53;1.90;;;;;;;;;;4949296;28;20057;-74
2022/06/09 01:25:07;;;;;;;6.32;1.88;;;;;;;;;;4967005;28;20079;-74
2022/06/09 01:27:52;;;;;;;6.15;1.80;;;;;;;;;;4968473;28;20432;-73
2022/06/09 01:30:18;;;;;;;6.72;1.70;;;;;;;;;;4943534;28;20031;-74
2022/06/09 01:32:57;;;;;;;4.75;1.58;;;;;;;;;;4971415;28;20469;-74
2022/06/09 01:35:39;;;;;;;6.07;1.67;;;;;;;;;;4967943;28;20041;-74
2022/06/09 01:38:05;;;;;;;6.40;1.63;;;;;;;;;;4966653;28;20329;-74
2022/06/09 01:40:31;;;;;;;6.20;1.40;;;;;;;;;;4965827;28;21008;-73
2022/06/09 01:42:59;;;;;;;5.88;1.63;;;;;;;;;;4972424;28;20025;-74
2022/06/09 01:45:26;;;;;;;5.28;1.33;;;;;;;;;;4970634;28;20030;-76
2022/06/09 01:47:52;;;;;;;5.20;1.58;;;;;;;;;;4968371;28;20030;-76
2022/06/09 01:50:23;;;;;;;4.78;1.48;;;;;;;;;;4956521;28;20385;-76
2022/06/09 01:52:50;;;;;;;5.35;1.35;;;;;;;;;;4968173;28;20038;-76
2022/06/09 01:55:20;;;;;;;6.68;1.65;;;;;;;;;;4971743;28;20662;-76
2022/06/09 01:57:51;;;;;;;6.63;1.60;;;;;;;;;;4951770;28;20048;-76
2022/06/09 02:00:19;;;;;;;7.35;1.65;;;;;;;;;;4982964;28;20901;-76
2022/06/09 02:02:58;;;;;;;7.07;1.73;;;;;;;;;;4963714;28;20034;-75
2022/06/09 02:05:28;;;;;;;5.10;1.30;;;;;;;;;;4985185;28;20503;-76
2022/06/09 02:07:57;;;;;;;5.78;1.63;;;;;;;;;;4976770;28;20374;-76
2022/06/09 02:10:38;;;;;;;4.95;1.58;;;;;;;;;;4978388;28;20038;-75
2022/06/09 02:13:31;;;;;;;4.80;1.50;;;;;;;;;;4976584;28;20535;-75
2022/06/09 02:16:04;;;;;;;8.13;1.67;;;;;;;;;;4982773;28;20045;-75
2022/06/09 02:18:36;;;;;;;6.78;1.70;;;;;;;;;;4978866;28;20030;-76
2022/06/09 02:21:11;;;;;;;5.22;1.55;;;;;;;;;;4985719;28;20077;-76
2022/06/09 02:23:39;;;;;;;6.25;1.52;;;;;;;;;;4964055;28;20365;-75
2022/06/09 02:26:07;;;;;;;5.50;1.40;;;;;;;;;;4983529;28;20097;-75
2022/06/09 02:28:34;;;;;;;5.25;1.33;;;;;;;;;;4978478;28;20681;-75
2022/06/09 02:31:02;;;;;;;5.30;1.50;;;;;;;;;;4982638;28;20489;-76
2022/06/09 02:33:30;;;;;;;5.65;1.42;;;;;;;;;;4982311;28;20116;-76
2022/06/09 02:35:57;;;;;;;4.70;1.42;;;;;;;;;;4978456;28;20404;-74
2022/06/09 02:38:24;;;;;;;6.88;1.75;;;;;;;;;;4981241;28;20116;-75
2022/06/09 02:40:51;;;;;;;4.50;1.40;;;;;;;;;;4974790;28;21006;-75
2022/06/09 02:43:19;;;;;;;5.22;1.40;;;;;;;;;;4966047;28;20076;-75
2022/06/09 02:45:46;;;;;;;6.28;1.75;;;;;;;;;;4978135;28;20361;-75
2022/06/09 02:48:14;;;;;;;7.50;1.92;;;;;;;;;;4984291;28;20299;-76
2022/06/09 02:50:41;;;;;;;5.80;1.55;;;;;;;;;;4964310;28;20033;-75
2022/06/09 02:53:09;;;;;;;5.30;1.50;;;;;;;;;;4962549;28;20026;-76
2022/06/09 02:55:35;;;;;;;5.45;1.70;;;;;;;;;;4979405;28;20029;-75
2022/06/09 02:58:01;;;;;;;5.32;1.52;;;;;;;;;;4981866;28;20729;-75
2022/06/09 03:00:27;;;;;;;;;;;;;;;;;;4982792;28;20038;-76
2022/06/09 03:02:55;;;;;;;5.15;1.80;;;;;;;;;;4982029;28;19914;-75
2022/06/09 03:05:22;;;;;;;4.85;1.63;;;;;;;;;;4982756;28;20046;-75
2022/06/09 03:07:48;;;;;;;7.32;1.75;;;;;;;;;;4964120;28;20036;-75
2022/06/09 03:10:15;;;;;;;5.50;1.42;;;;;;;;;;4961707;28;20041;-75
2022/06/09 03:12:41;;;;;;;6.65;1.65;;;;;;;;;;4962497;28;20325;-75
2022/06/09 03:15:08;;;;;;;4.22;1.40;;;;;;;;;;4966987;28;20026;-75
2022/06/09 03:17:37;;;;;;;7.07;1.65;;;;;;;;;;4978517;28;20500;-75
2022/06/09 03:20:05;;;;;;;6.15;1.60;;;;;;;;;;4982746;28;20499;-75
2022/06/09 03:22:32;;;;;;;5.30;1.48;;;;;;;;;;4981707;28;20026;-75
2022/06/09 03:24:58;;;;;;;6.18;1.50;;;;;;;;;;4984767;28;20469;-74
2022/06/09 03:27:25;;;;;;;4.40;1.60;;;;;;;;;;4982798;28;20487;-74
2022/06/09 03:29:51;;;;;;;8.48;1.67;;;;;;;;;;4980225;28;21275;-74
2022/06/09 03:32:17;;;;;;;9.23;1.95;;;;;;;;;;4984440;28;20033;-73
2022/06/09 03:34:43;;;;;;;7.78;1.60;;;;;;;;;;4978498;28;20400;-74
2022/06/09 03:37:09;;;;;;;5.43;1.58;;;;;;;;;;4985585;28;20034;-75
2022/06/09 03:39:37;;;;;;;6.80;1.67;;;;;;;;;;4986595;28;20532;-76
2022/06/09 03:42:03;;;;;;;4.93;1.60;;;;;;;;;;4968333;28;20034;-76
2022/06/09 03:44:29;;;;;;;5.28;1.60;;;;;;;;;;4974445;28;20176;-76
2022/06/09 03:46:55;;;;;;;7.05;1.50;;;;;;;;;;4968901;28;20140;-76
2022/06/09 03:49:21;;;;;;;;;;;;;;;;;;4973275;28;20528;-75
2022/06/09 03:51:48;;;;;;;4.20;1.52;;;;;;;;;;4969531;28;19924;-75
2022/06/09 03:54:14;;;;;;;3.80;1.40;;;;;;;;;;4986495;28;20499;-75
2022/06/09 03:56:42;;;;;;;5.55;1.58;;;;;;;;;;4964103;28;20129;-75
2022/06/09 03:59:11;;;;;;;5.03;1.45;;;;;;;;;;4982254;28;20509;-75
2022/06/09 04:01:38;;;;;;;5.13;1.60;;;;;;;;;;4985267;28;20044;-75
2022/06/09 04:04:05;;;;;;;5.50;1.60;;;;;;;;;;4987106;28;20135;-76
2022/06/09 04:06:33;;;;;;;5.97;1.67;;;;;;;;;;4972136;28;20092;-75
2022/06/09 04:09:01;;;;;;;5.20;1.50;;;;;;;;;;4980801;28;20293;-75
2022/06/09 04:11:28;;;;;;;4.97;1.30;;;;;;;;;;4980806;28;20066;-76
2022/06/09 04:13:56;;;;;;;3.17;1.23;;;;;;;;;;4976761;28;20548;-73
2022/06/09 04:16:55;;;;;;;4.22;1.40;;;;;;;;;;4970507;28;20046;-74
2022/06/09 04:19:22;;;;;;;5.35;1.30;;;;;;;;;;4928620;28;20300;-74
2022/06/09 04:21:50;;;;;;;5.45;1.60;;;;;;;;;;4924929;28;20031;-74
2022/06/09 04:24:18;;;;;;;5.07;1.60;;;;;;;;;;4949865;28;20418;-74
2022/06/09 04:26:45;;;;;;;4.75;1.50;;;;;;;;;;4931044;28;20605;-76
2022/06/09 04:29:13;;;;;;;8.23;2.10;;;;;;;;;;4947222;28;20039;-75
2022/06/09 04:31:41;;;;;;;7.93;1.92;;;;;;;;;;4928578;28;20310;-75
2022/06/09 04:34:09;;;;;;;5.78;1.55;;;;;;;;;;4944141;28;20027;-75
2022/06/09 04:36:37;;;;;;;5.72;1.70;;;;;;;;;;4946273;28;20165;-74
2022/06/09 04:39:05;;;;;;;7.50;1.90;;;;;;;;;;4948676;28;20037;-74
2022/06/09 04:41:33;;;;;;;5.90;1.85;;;;;;;;;;4928511;28;20512;-75
2022/06/09 04:44:00;;;;;;;5.47;1.67;;;;;;;;;;4949053;28;20100;-75
2022/06/09 04:46:27;;;;;;;7.85;1.80;;;;;;;;;;4933619;28;20197;-75
2022/06/09 04:48:55;;;;;;;6.72;2.00;;;;;;;;;;4919208;28;20328;-75
2022/06/09 04:51:23;;;;;;;8.10;1.90;;;;;;;;;;4940155;28;20282;-75
2022/06/09 04:53:49;;;;;;;5.47;1.38;;;;;;;;;;4935734;28;20041;-76
2022/06/09 04:56:16;;;;;;;4.40;1.58;;;;;;;;;;4971073;28;20235;-76
2022/06/09 04:58:43;;;;;;;5.45;1.73;;;;;;;;;;4973925;28;20111;-75
2022/06/09 05:01:17;;;;;;;6.00;1.88;;;;;;;;;;4979627;28;20065;-75
2022/06/09 05:03:44;;;;;;;5.88;1.88;;;;;;;;;;4960254;28;20041;-74
2022/06/09 05:06:10;;;;;;;5.55;1.70;;;;;;;;;;4981338;28;20029;-75
2022/06/09 05:08:37;;;;;;;4.57;1.60;;;;;;;;;;4957635;28;20138;-75
2022/06/09 05:11:03;;;;;;;6.30;1.60;;;;;;;;;;4979353;28;20038;-75
2022/06/09 05:13:29;;;;;;;7.15;1.80;;;;;;;;;;4981081;28;20539;-76
2022/06/09 05:15:56;;;;;;;8.40;2.10;;;;;;;;;;4976800;28;20088;-75
2022/06/09 05:18:24;;;;;;;8.60;2.20;;;;;;;;;;4961397;28;20942;-75
2022/06/09 05:20:50;;;;;;;11.02;2.28;;;;;;;;;;4979714;28;20405;-76
2022/06/09 05:23:18;;;;;;;7.90;1.90;;;;;;;;;;4979813;28;20523;-76
2022/06/09 05:25:45;;;;;;;7.95;2.22;;;;;;;;;;4975938;28;20026;-75
2022/06/09 05:28:11;;;;;;;15.75;2.85;;;;;;;;;;4980051;28;20384;-75
2022/06/09 05:30:37;;;;;;;13.60;3.22;;;;;;;;;;4979542;28;20156;-74
2022/06/09 05:33:04;;;;;;;13.18;2.85;;;;;;;;;;4984247;28;20462;-74
2022/06/09 05:35:31;;;;;;;12.40;2.58;;;;;;;;;;4960348;28;20123;-74
2022/06/09 05:46:15;;;;;;;7.72;2.65;;;;;;;;;;4983147;28;20144;-75
2022/06/09 05:48:42;;;;;;;8.55;2.78;;;;;;;;;;4974242;28;20484;-75
2022/06/09 05:51:08;;;;;;;13.30;2.60;;;;;;;;;;4975597;28;20044;-75
2022/06/09 05:53:35;;;;;;;6.13;2.00;;;;;;;;;;4978966;28;20508;-74
2022/06/09 05:56:04;;;;;;;10.15;2.53;;;;;;;;;;4974056;28;20284;-75
2022/06/09 05:58:30;;;;;;;8.23;2.05;;;;;;;;;;4960917;28;20029;-74
2022/06/09 06:00:57;;;;;;;5.93;1.52;;;;;;;;;;4966450;28;20044;-75
2022/06/09 06:03:24;;;;;;;5.75;2.10;;;;;;;;;;4962741;28;20403;-75
2022/06/09 06:08:39;;;;;;;7.37;1.73;;;;;;;;;;4976044;28;20108;-75
2022/06/09 06:11:07;;;;;;;7.50;2.13;;;;;;;;;;4961933;28;20060;-76
2022/06/09 06:13:35;;;;;;;8.48;2.78;;;;;;;;;;4973560;28;20392;-75
2022/06/09 06:16:02;;;;;;;11.13;2.90;;;;;;;;;;4961897;28;20430;-74
2022/06/09 06:18:31;;;;;;;9.55;3.10;;;;;;;;;;4979085;28;20037;-75
2022/06/09 06:20:59;;;;;;;8.55;2.38;;;;;;;;;;4980328;28;20034;-76
2022/06/09 06:23:27;;;;;;;11.07;3.10;;;;;;;;;;4973826;28;20464;-75
2022/06/09 06:25:55;;;;;;;14.43;3.08;;;;;;;;;;4958058;28;20044;-75
2022/06/09 06:28:23;;;;;;;9.35;2.50;;;;;;;;;;4961871;28;20140;-75
2022/06/09 06:30:51;;;;;;;9.50;2.30;;;;;;;;;;4957190;28;20064;-74
2022/06/09 06:33:18;;;;;;;7.82;2.10;;;;;;;;;;4978330;28;20552;-75
2022/06/09 06:35:46;;;;;;;12.30;2.40;;;;;;;;;;4969549;28;20380;-75
2022/06/09 06:38:15;;;;;;;8.57;2.30;;;;;;;;;;4979011;28;20030;-74
2022/06/09 06:40:42;;;;;;;7.55;1.88;;;;;;;;;;4975641;28;20446;-74
2022/06/09 06:43:10;;;;;;;8.25;1.83;;;;;;;;;;4982290;28;20029;-75
2022/06/09 06:45:37;;;;;;;6.03;1.65;;;;;;;;;;4969449;28;20486;-74
2022/06/09 06:48:05;;;;;;;8.18;1.75;;;;;;;;;;4975424;28;20108;-75
2022/06/09 06:50:33;;;;;;;6.53;1.75;;;;;;;;;;4956298;28;20432;-74
2022/06/09 06:53:00;;;;;;;8.57;1.95;;;;;;;;;;4957827;28;20034;-74
2022/06/09 06:55:26;;;;;;;6.03;1.85;;;;;;;;;;4961004;28;20029;-74
2022/06/09 06:57:53;;;;;;;6.35;1.70;;;;;;;;;;4972980;28;20766;-75
2022/06/09 07:00:21;;;;;;;10.82;1.80;;;;;;;;;;4979358;28;20077;-74
2022/06/09 07:02:48;;;;;;;7.10;1.80;;;;;;;;;;4971984;28;20033;-73
2022/06/09 07:05:14;;;;;;;6.03;1.83;;;;;;;;;;4963563;28;20042;-74
2022/06/09 07:07:41;;;;;;;7.45;2.03;;;;;;;;;;4955747;28;20449;-73
2022/06/09 07:10:08;;;;;;;6.38;1.80;;;;;;;;;;4978513;28;20037;-73
2022/06/09 07:12:35;;;;;;;6.85;1.65;;;;;;;;;;4961951;28;20038;-73
2022/06/09 07:15:01;;;;;;;7.78;1.55;;;;;;;;;;4965412;28;20119;-73
2022/06/09 07:17:27;;;;;;;6.50;1.70;;;;;;;;;;4963484;28;20034;-73
2022/06/09 07:19:53;;;;;;;6.38;1.60;;;;;;;;;;4959210;28;20187;-73
2022/06/09 07:22:20;;;;;;;7.95;1.80;;;;;;;;;;4977836;28;20026;-73
2022/06/09 07:24:46;;;;;;;14.27;2.33;;;;;;;;;;4976952;28;20033;-73
2022/06/09 07:27:12;;;;;;;11.82;2.55;;;;;;;;;;4981571;28;20026;-74
2022/06/09 07:29:39;;;;;;;8.90;2.17;;;;;;;;;;4958846;28;20395;-73
2022/06/09 07:32:05;;;;;;;8.15;1.60;;;;;;;;;;4983830;28;20022;-73
2022/06/09 07:34:31;;;;;;;8.10;1.77;;;;;;;;;;4980120;28;20093;-73
2022/06/09 07:36:58;;;;;;;7.03;1.75;;;;;;;;;;4980463;28;20045;-73
2022/06/09 07:39:24;;;;;;;8.05;1.67;;;;;;;;;;4971309;28;20514;-73
2022/06/09 07:41:51;;;;;;;8.40;1.95;;;;;;;;;;4978576;28;20399;-73
2022/06/09 07:44:18;;;;;;;10.30;1.92;;;;;;;;;;4983374;28;20034;-73
2022/06/09 07:46:44;;;;;;;6.15;1.52;;;;;;;;;;4983318;28;20033;-74
2022/06/09 07:49:10;;;;;;;9.93;1.90;;;;;;;;;;4981826;28;20034;-73
2022/06/09 07:51:37;;;;;;;21.67;2.80;;;;;;;;;;4973799;28;20567;-73
2022/06/09 07:54:06;;;;;;;7.65;1.73;;;;;;;;;;4981763;28;20044;-73
2022/06/09 07:56:34;;;;;;;8.40;1.45;;;;;;;;;;4976865;28;20864;-73
2022/06/09 07:59:03;;;;;;;7.63;1.90;;;;;;;;;;4980689;28;20056;-74
2022/06/09 08:01:31;;;;;;;7.03;1.50;;;;;;;;;;4966215;28;20801;-74
2022/06/09 08:03:59;;;;;;;6.00;1.58;;;;;;;;;;4979131;28;20750;-73
2022/06/09 08:06:27;;;;;;;7.63;1.58;;;;;;;;;;4983425;28;20022;-73
2022/06/09 08:08:56;;;;;;;5.35;1.45;;;;;;;;;;4977097;28;20476;-73
2022/06/09 08:11:25;;;;;;;5.63;1.33;;;;;;;;;;4978897;28;20388;-74
2022/06/09 08:13:52;;;;;;;9.15;1.80;;;;;;;;;;4974507;28;20400;-75
2022/06/09 08:16:20;;;;;;;6.18;1.50;;;;;;;;;;4979036;28;21049;-73
2022/06/09 08:18:47;;;;;;;6.32;1.55;;;;;;;;;;4976092;28;20579;-73
2022/06/09 08:21:15;;;;;;;10.18;1.83;;;;;;;;;;4963918;28;20541;-74
2022/06/09 08:23:43;;;;;;;5.18;1.35;;;;;;;;;;4979894;28;20179;-75
2022/06/09 08:26:10;;;;;;;6.65;1.90;;;;;;;;;;4981043;28;20559;-75
2022/06/09 08:28:38;;;;;;;7.78;1.65;;;;;;;;;;4961499;28;20481;-73
2022/06/09 08:31:06;;;;;;;5.78;1.45;;;;;;;;;;4980848;28;20030;-73
2022/06/09 08:33:35;;;;;;;9.55;1.90;;;;;;;;;;4958975;28;20132;-73
2022/06/09 08:36:04;;;;;;;10.30;1.80;;;;;;;;;;4978469;28;20653;-73
2022/06/09 08:38:32;;;;;;;5.30;1.50;;;;;;;;;;4959551;28;20882;-76
2022/06/09 08:41:20;;;;;;;5.35;1.40;;;;;;;;;;4980505;28;20502;-73
2022/06/09 08:43:52;;;;;;;11.45;1.95;;;;;;;;;;4976555;28;20030;-74
2022/06/09 08:46:30;;;;;;;7.18;1.63;;;;;;;;;;4963472;28;20467;-74
2022/06/09 08:49:02;;;;;;;8.07;1.50;;;;;;;;;;4979477;28;20357;-75
2022/06/09 08:51:40;;;;;;;5.90;1.60;;;;;;;;;;4981320;28;20018;-75
2022/06/09 08:54:15;;;;;;;9.23;1.50;;;;;;;;;;4979502;28;20061;-74
2022/06/09 08:56:41;;;;;;;4.32;1.40;;;;;;;;;;4957315;28;20160;-75
2022/06/09 08:59:13;;;;;;;7.63;1.67;;;;;;;;;;4971817;28;20046;-75
2022/06/09 09:01:42;;;;;;;6.70;1.33;;;;;;;;;;4961330;28;20377;-75
2022/06/09 09:04:08;;;;;;;5.35;1.20;;;;;;;;;;4964254;28;20065;-75
2022/06/09 09:06:53;;;;;;;6.43;1.20;;;;;;;;;;4959913;28;20038;-75
2022/06/09 09:09:22;;;;;;;3.90;1.20;;;;;;;;;;4960529;28;20027;-75
2022/06/09 09:11:54;;;;;;;7.10;1.50;;;;;;;;;;4957444;28;20041;-74
2022/06/09 09:14:22;;;;;;;7.90;1.55;;;;;;;;;;4962952;28;20045;-74
2022/06/09 09:17:07;;;;;;;6.47;1.52;;;;;;;;;;4953227;28;20030;-74
2022/06/09 09:20:12;;;;;;;10.63;2.45;;;;;;;;;;4956927;28;20034;-74
2022/06/09 09:22:58;;;;;;;8.65;1.85;;;;;;;;;;4915688;28;20028;-73
2022/06/09 09:25:30;;;;;;;11.93;1.83;;;;;;;;;;4919815;28;20111;-73
2022/06/09 09:28:27;;;;;;;9.82;2.17;;;;;;;;;;4918495;28;20529;-73
2022/06/09 09:31:02;;;;;;;7.40;1.80;;;;;;;;;;4897825;29;20138;-75
2022/06/09 09:33:28;;;;;;;8.40;1.70;;;;;;;;;;4900561;29;20480;-76
2022/06/09 09:35:57;;;;;;;10.10;2.22;;;;;;;;;;4891503;29;20035;-75
2022/06/09 09:38:26;;;;;;;9.57;1.95;;;;;;;;;;4900276;29;20040;-75
2022/06/09 09:40:58;;;;;;;9.27;1.60;;;;;;;;;;4896534;29;20074;-75
2022/06/09 09:43:26;;;;;;;9.52;2.10;;;;;;;;;;4898939;29;20387;-75
2022/06/09 09:45:55;;;;;;;9.20;1.65;;;;;;;;;;4894149;29;20173;-75
2022/06/09 09:48:21;;;;;;;8.00;1.80;;;;;;;;;;4897409;29;20040;-75
2022/06/09 09:50:48;;;;;;;7.40;1.70;;;;;;;;;;4895897;29;20558;-73
2022/06/09 09:53:19;;;;;;;10.50;1.98;;;;;;;;;;4906406;29;20191;-74
2022/06/09 09:56:00;;;;;;;12.20;1.80;;;;;;;;;;4914667;28;20663;-74
2022/06/09 09:58:44;;;;;;;10.70;2.00;;;;;;;;;;4919671;28;20031;-74
2022/06/09 10:01:28;;;;;;;7.50;1.58;;;;;;;;;;4915960;28;20032;-73
2022/06/09 10:10:26;;;;;;;12.85;2.15;;;;;;;;;;4904093;29;20523;-75
2022/06/09 10:12:54;;;;;;;6.20;1.50;;;;;;;;;;4902415;28;20031;-74
2022/06/09 10:15:23;;;;;;;4.68;0.90;;;;;;;;;;4903264;28;20623;-74
2022/06/09 10:18:03;;;;;;;6.00;1.10;;;;;;;;;;4903467;29;20084;-75
2022/06/09 10:20:38;;;;;;;5.10;0.70;;;;;;;;;;4907536;29;20086;-76
2022/06/09 10:23:10;;;;;;;3.28;0.70;;;;;;;;;;4907224;29;20043;-75
2022/06/09 10:25:56;;;;;;;4.30;0.80;;;;;;;;;;4902991;29;20044;-76
2022/06/09 10:28:59;;;;;;;2.67;0.63;;;;;;;;;;4919955;28;20611;-75
2022/06/09 10:31:43;;;;;;;2.10;0.50;;;;;;;;;;4885819;29;20039;-76
2022/06/09 10:34:28;;;;;;;7.28;0.90;;;;;;;;;;4886452;29;20100;-76
2022/06/09 10:37:14;;;;;;;6.28;0.80;;;;;;;;;;4866768;29;20166;-76
2022/06/09 10:39:47;;;;;;;11.05;1.38;;;;;;;;;;4886469;29;20500;-75
2022/06/09 10:42:32;;;;;;;13.75;2.33;;;;;;;;;;4883934;28;20146;-75
2022/06/09 10:45:13;;;;;;;21.92;3.33;;;;;;;;;;4916908;28;20063;-75
2022/06/09 10:57:09;;;;;;;4.50;0.80;;;;;;;;;;4893902;29;20082;-76
2022/06/09 10:59:40;;;;;;;4.00;0.93;;;;;;;;;;4878336;29;20486;-75
2022/06/09 11:02:15;;;;;;;4.72;0.85;;;;;;;;;;4896876;29;20107;-67
2022/06/09 11:04:42;;;;;;;2.40;0.60;;;;;;;;;;4900355;28;20723;-68
2022/06/09 11:07:15;;;;;;;2.92;0.60;;;;;;;;;;4938603;28;20058;-68
2022/06/09 11:09:53;;;;;;;3.63;0.82;;;;;;;;;;4933250;28;20047;-69
2022/06/09 11:12:19;;;;;;;3.70;0.70;;;;;;;;;;4935847;28;20030;-67
2022/06/09 11:14:45;;;;;;;4.65;0.80;;;;;;;;;;4928801;28;20039;-75
2022/06/09 11:17:22;;;;;;;5.63;1.00;;;;;;;;;;4939229;28;20045;-74
2022/06/09 11:19:51;;;;;;;3.03;0.82;;;;;;;;;;4917896;28;20035;-76
2022/06/09 11:22:27;;;;;;;3.28;0.65;;;;;;;;;;4953108;28;20030;-76
2022/06/09 11:25:02;;;;;;;4.85;0.60;;;;;;;;;;4975940;28;20089;-76
2022/06/09 11:27:28;;;;;;;3.78;0.70;;;;;;;;;;4978482;28;20033;-76
2022/06/09 11:30:07;;;;;;;2.25;0.63;;;;;;;;;;4970905;28;20686;-75
2022/06/09 11:32:39;;;;;;;4.43;0.80;;;;;;;;;;4975764;28;20603;-75
2022/06/09 11:35:24;;;;;;;6.30;0.80;;;;;;;;;;4970194;28;20033;-72
2022/06/09 11:37:59;;;;;;;6.53;0.85;;;;;;;;;;4970794;28;20116;-77
2022/06/09 11:40:33;;;;;;;4.63;0.77;;;;;;;;;;4942431;28;20069;-74
2022/06/09 11:43:05;;;;;;;5.82;0.93;;;;;;;;;;4960608;28;20046;-75
2022/06/09 11:45:32;;;;;;;5.18;0.80;;;;;;;;;;4979152;28;20252;-71
2022/06/09 11:47:59;;;;;;;4.32;0.80;;;;;;;;;;4954672;28;20069;-76
2022/06/09 11:50:29;;;;;;;3.08;0.90;;;;;;;;;;4962372;28;20030;-77
2022/06/09 11:52:57;;;;;;;3.63;0.85;;;;;;;;;;4957620;28;20033;-74
2022/06/09 11:58:43;;;;;;;4.70;0.90;;;;;;;;;;4972016;28;20165;-77
2022/06/09 12:01:30;;;;;;;3.70;0.90;;;;;;;;;;4964403;28;20050;-76
2022/06/09 12:04:12;;;;;;;4.75;1.05;;;;;;;;;;4984391;28;20148;-75
2022/06/09 12:06:58;;;;;;;4.07;0.82;;;;;;;;;;4979503;28;20037;-75
2022/06/09 12:09:44;;;;;;;3.50;0.70;;;;;;;;;;4982205;28;20319;-76
2022/06/09 12:12:30;;;;;;;4.80;0.80;;;;;;;;;;4985672;28;20022;-76
2022/06/09 12:15:18;;;;;;;4.22;0.90;;;;;;;;;;4983105;28;20044;-75
2022/06/09 12:18:06;;;;;;;3.78;1.00;;;;;;;;;;4948539;28;20364;-74
2022/06/09 12:20:51;;;;;;;4.47;0.77;;;;;;;;;;4941250;28;20120;-77
2022/06/09 12:23:38;;;;;;;3.92;0.70;;;;;;;;;;4952129;28;20022;-77
2022/06/09 12:26:19;;;;;;;2.58;0.70;;;;;;;;;;4958045;28;20111;-76
2022/06/09 12:28:55;;;;;;;2.83;0.70;;;;;;;;;;4967252;28;20653;-75
2022/06/09 12:31:37;;;;;;;5.15;1.00;;;;;;;;;;4973157;28;20928;-75
2022/06/09 12:34:20;;;;;;;6.30;0.70;;;;;;;;;;4989279;28;20499;-76
2022/06/09 12:36:54;;;;;;;5.30;1.00;;;;;;;;;;4979260;28;20521;-75
2022/06/09 12:39:35;;;;;;;4.70;0.95;;;;;;;;;;4988827;28;20053;-77
2022/06/09 12:42:04;;;;;;;5.22;0.88;;;;;;;;;;4983022;28;20069;-75
2022/06/09 12:44:43;;;;;;;2.75;0.60;;;;;;;;;;4981194;28;20042;-73
2022/06/09 12:47:24;;;;;;;3.85;0.85;;;;;;;;;;4968375;28;20034;-75
2022/06/09 12:49:56;;;;;;;2.75;0.70;;;;;;;;;;4976194;28;21195;-75
2022/06/09 12:52:28;;;;;;;3.28;0.80;;;;;;;;;;4981207;28;20419;-73
2022/06/09 12:54:59;;;;;;;3.53;0.73;;;;;;;;;;4977721;28;20056;-73
2022/06/09 12:57:27;;;;;;;2.78;0.70;;;;;;;;;;4976630;28;20034;-73
2022/06/09 13:00:08;;;;;;;3.88;0.95;;;;;;;;;;4978832;28;20069;-73
2022/06/09 13:02:38;;;;;;;3.85;1.00;;;;;;;;;;4951674;28;20593;-73
2022/06/09 13:05:19;;;;;;;2.40;0.70;;;;;;;;;;4938614;28;20038;-74
2022/06/09 13:07:55;;;;;;;5.05;0.88;;;;;;;;;;4915249;28;20033;-72
2022/06/09 13:10:35;;;;;;;3.92;0.90;;;;;;;;;;4942000;28;20551;-75
2022/06/09 13:13:20;;;;;;;3.05;0.80;;;;;;;;;;4939670;28;20053;-73
2022/06/09 13:15:55;;;;;;;6.13;1.10;;;;;;;;;;4940770;28;20072;-70
2022/06/09 13:18:36;;;;;;;5.72;1.05;;;;;;;;;;4924427;28;20072;-73
2022/06/09 13:21:09;;;;;;;6.30;0.85;;;;;;;;;;4950600;28;20026;-73
2022/06/09 13:23:38;;;;;;;3.53;0.80;;;;;;;;;;4940840;28;20606;-73
2022/06/09 13:26:06;;;;;;;5.35;1.10;;;;;;;;;;4944684;28;20586;-72
2022/06/09 13:28:35;;;;;;;4.78;1.00;;;;;;;;;;4933604;28;20050;-76
2022/06/09 13:31:06;;;;;;;4.03;1.00;;;;;;;;;;4972953;28;20354;-73
2022/06/09 13:33:35;;;;;;;3.90;0.85;;;;;;;;;;4969910;28;20033;-73
2022/06/09 13:36:19;;;;;;;3.90;0.85;;;;;;;;;;4964859;28;20499;-73
2022/06/09 13:38:46;;;;;;;4.03;0.90;;;;;;;;;;4956718;28;20053;-74
2022/06/09 13:41:48;;;;;;;4.20;0.90;;;;;;;;;;4981793;28;20029;-73
2022/06/09 13:44:20;;;;;;;4.82;1.02;;;;;;;;;;4903639;29;20222;-73
2022/06/09 13:47:08;;;;;;;4.57;1.17;;;;;;;;;;4904702;29;20050;-73
2022/06/09 13:49:48;;;;;;;11.13;2.50;;;;;;;;;;4904765;29;20110;-74
2022/06/09 13:52:26;;;;;;;14.48;2.95;;;;;;;;;;4905387;29;20051;-73
2022/06/09 13:55:08;;;;;;;13.93;2.92;;;;;;;;;;4899973;29;20032;-74
2022/06/09 13:57:38;;;;;;;14.88;2.65;;;;;;;;;;4903543;29;20221;-73
2022/06/09 14:00:07;;;;;;;12.18;2.50;;;;;;;;;;4908760;29;20052;-74
2022/06/09 14:03:02;;;;;;;11.75;2.70;;;;;;;;;;4875659;29;20098;-73
2022/06/09 14:05:32;;;;;;;12.13;2.80;;;;;;;;;;4867023;28;20032;-72
2022/06/09 14:08:21;;;;;;;15.68;3.13;;;;;;;;;;4846170;29;20102;-72
2022/06/09 14:10:49;;;;;;;12.18;2.95;;;;;;;;;;4844103;29;20016;-72
2022/06/09 14:13:19;;;;;;;11.32;2.70;;;;;;;;;;4941252;28;20348;-73
2022/06/09 14:15:49;;;;;;;13.77;2.78;;;;;;;;;;4932270;28;20103;-73
2022/06/09 14:18:21;;;;;;;15.55;3.15;;;;;;;;;;4947528;28;20617;-72
2022/06/09 14:20:48;;;;;;;17.02;3.47;;;;;;;;;;4940490;28;20148;-73
2022/06/09 14:23:21;;;;;;;14.13;3.55;;;;;;;;;;4942467;28;20618;-72
2022/06/09 14:25:52;;;;;;;13.45;3.00;;;;;;;;;;4919019;28;20026;-74
2022/06/09 14:28:20;;;;;;;13.13;2.95;;;;;;;;;;4920995;28;20036;-74
2022/06/09 14:30:47;;;;;;;13.95;3.13;;;;;;;;;;4936944;28;20037;-72
2022/06/09 14:33:15;;;;;;;13.57;2.75;;;;;;;;;;4922827;28;21229;-74
2022/06/09 14:35:43;;;;;;;12.35;2.72;;;;;;;;;;4921994;28;20060;-73
2022/06/09 14:38:17;;;;;;;11.10;2.70;;;;;;;;;;4940632;28;20465;-74
2022/06/09 14:40:46;;;;;;;13.53;3.10;;;;;;;;;;4980000;28;20034;-74
2022/06/09 14:43:14;;;;;;;15.38;3.00;;;;;;;;;;4988140;28;20099;-73
2022/06/09 14:45:44;;;;;;;15.00;2.80;;;;;;;;;;4949029;28;20033;-73
2022/06/09 14:48:16;;;;;;;15.77;3.05;;;;;;;;;;4980380;28;20289;-74
2022/06/09 14:50:44;;;;;;;13.48;2.97;;;;;;;;;;4964544;28;20035;-73
2022/06/09 14:53:24;;;;;;;10.50;2.88;;;;;;;;;;4966193;28;20037;-74
2022/06/09 14:55:52;;;;;;;13.10;3.13;;;;;;;;;;4982360;28;20339;-74
2022/06/09 14:58:34;;;;;;;13.48;2.90;;;;;;;;;;4985499;28;20030;-74
2022/06/09 15:01:00;;;;;;;14.90;2.92;;;;;;;;;;4948046;28;20034;-74
2022/06/09 15:03:27;;;;;;;14.80;3.17;;;;;;;;;;4966115;28;20465;-73
2022/06/09 15:05:56;;;;;;;13.18;3.25;;;;;;;;;;4964481;28;20042;-74
2022/06/09 15:08:23;;;;;;;12.75;3.25;;;;;;;;;;4950899;28;20034;-74
2022/06/09 15:10:51;;;;;;;11.70;2.95;;;;;;;;;;4956961;28;20027;-75
2022/06/09 15:13:18;;;;;;;14.05;3.20;;;;;;;;;;4964457;28;20327;-74
2022/06/09 15:15:45;;;;;;;12.45;2.78;;;;;;;;;;4959802;28;20050;-75
2022/06/09 15:18:16;;;;;;;13.40;3.03;;;;;;;;;;4963123;28;20510;-73
2022/06/09 15:20:43;;;;;;;15.90;2.90;;;;;;;;;;4944988;28;20645;-74
2022/06/09 15:23:10;;;;;;;14.93;3.08;;;;;;;;;;4967912;28;20061;-75
2022/06/09 15:25:40;;;;;;;13.73;3.55;;;;;;;;;;4962133;28;20030;-74
2022/06/09 15:28:07;;;;;;;12.45;3.38;;;;;;;;;;4965093;28;20027;-76
2022/06/09 15:30:36;;;;;;;13.13;2.75;;;;;;;;;;4946485;28;20665;-74
2022/06/09 15:33:06;;;;;;;17.55;3.50;;;;;;;;;;4970161;28;20034;-74
2022/06/09 15:35:32;;;;;;;14.23;3.28;;;;;;;;;;4972209;28;20031;-73